sensor_id;sensor_type;location;lat;lon;timestamp;P1;durP1;ratioP1;P2;durP2;ratioP2
21657;SDS011;10990;48.174;9.782;2023-07-22T00:01:20;2.78;;;1.60;;
21657;SDS011;10990;48.174;9.782;2023-07-22T00:03:47;1.85;;;1.42;;
21657;SDS011;10990;48.174;9.782;2023-07-22T00:06:14;2.58;;;1.20;;
21657;SDS011;10990;48.174;9.782;2023-07-22T00:08:41;3.20;;;1.27;;
21657;SDS011;10990;48.174;9.782;2023-07-22T00:11:07;2.00;;;1.75;;
21657;SDS011;10990;48.174;9.782;2023-07-22T00:13:34;2.65;;;1.70;;
21657;SDS011;10990;48.174;9.782;2023-07-22T00:16:02;2.80;;;1.70;;
21657;SDS011;10990;48.174;9.782;2023-07-22T00:18:30;4.97;;;2.10;;
21657;SDS011;10990;48.174;9.782;2023-07-22T00:20:57;3.38;;;1.50;;
21657;SDS011;10990;48.174;9.782;2023-07-22T00:23:24;3.67;;;1.40;;
21657;SDS011;10990;48.174;9.782;2023-07-22T00:25:51;4.28;;;1.75;;
21657;SDS011;10990;48.174;9.782;2023-07-22T00:28:18;4.43;;;1.63;;
21657;SDS011;10990;48.174;9.782;2023-07-22T00:30:44;3.67;;;1.48;;
21657;SDS011;10990;48.174;9.782;2023-07-22T00:33:12;2.85;;;1.50;;
21657;SDS011;10990;48.174;9.782;2023-07-22T00:35:39;2.20;;;1.50;;
21657;SDS011;10990;48.174;9.782;2023-07-22T00:38:06;3.08;;;1.40;;
21657;SDS011;10990;48.174;9.782;2023-07-22T00:40:33;3.63;;;1.50;;
21657;SDS011;10990;48.174;9.782;2023-07-22T00:43:00;5.10;;;1.50;;
21657;SDS011;10990;48.174;9.782;2023-07-22T00:45:27;2.55;;;1.58;;
21657;SDS011;10990;48.174;9.782;2023-07-22T00:47:54;4.32;;;1.70;;
21657;SDS011;10990;48.174;9.782;2023-07-22T00:50:22;2.38;;;1.55;;
21657;SDS011;10990;48.174;9.782;2023-07-22T00:52:50;3.30;;;1.27;;
21657;SDS011;10990;48.174;9.782;2023-07-22T00:55:18;2.50;;;1.27;;
21657;SDS011;10990;48.174;9.782;2023-07-22T00:57:45;2.45;;;1.58;;
21657;SDS011;10990;48.174;9.782;2023-07-22T01:00:12;3.15;;;1.65;;
21657;SDS011;10990;48.174;9.782;2023-07-22T01:02:41;1.42;;;1.33;;
21657;SDS011;10990;48.174;9.782;2023-07-22T01:05:09;2.53;;;1.50;;
21657;SDS011;10990;48.174;9.782;2023-07-22T01:07:39;2.58;;;1.60;;
21657;SDS011;10990;48.174;9.782;2023-07-22T01:10:06;4.15;;;1.50;;
21657;SDS011;10990;48.174;9.782;2023-07-22T01:12:34;2.50;;;1.38;;
21657;SDS011;10990;48.174;9.782;2023-07-22T01:15:01;3.78;;;1.63;;
21657;SDS011;10990;48.174;9.782;2023-07-22T01:17:32;3.45;;;1.70;;
21657;SDS011;10990;48.174;9.782;2023-07-22T01:20:00;3.25;;;1.60;;
21657;SDS011;10990;48.174;9.782;2023-07-22T01:22:28;2.95;;;1.67;;
21657;SDS011;10990;48.174;9.782;2023-07-22T01:24:57;3.78;;;1.80;;
21657;SDS011;10990;48.174;9.782;2023-07-22T01:27:24;3.08;;;1.70;;
21657;SDS011;10990;48.174;9.782;2023-07-22T01:29:51;1.77;;;1.58;;
21657;SDS011;10990;48.174;9.782;2023-07-22T01:32:18;2.53;;;1.70;;
21657;SDS011;10990;48.174;9.782;2023-07-22T01:34:45;1.63;;;1.48;;
21657;SDS011;10990;48.174;9.782;2023-07-22T01:37:12;1.92;;;1.35;;
21657;SDS011;10990;48.174;9.782;2023-07-22T01:39:38;4.82;;;1.90;;
21657;SDS011;10990;48.174;9.782;2023-07-22T01:42:06;2.65;;;1.60;;
21657;SDS011;10990;48.174;9.782;2023-07-22T01:44:33;4.03;;;1.40;;
21657;SDS011;10990;48.174;9.782;2023-07-22T01:47:01;3.15;;;1.55;;
21657;SDS011;10990;48.174;9.782;2023-07-22T01:49:28;2.55;;;1.50;;
21657;SDS011;10990;48.174;9.782;2023-07-22T01:51:55;3.53;;;1.52;;
21657;SDS011;10990;48.174;9.782;2023-07-22T01:54:22;3.88;;;1.70;;
21657;SDS011;10990;48.174;9.782;2023-07-22T01:56:48;5.30;;;1.60;;
21657;SDS011;10990;48.174;9.782;2023-07-22T01:59:17;2.38;;;1.70;;
21657;SDS011;10990;48.174;9.782;2023-07-22T02:01:43;4.93;;;1.67;;
21657;SDS011;10990;48.174;9.782;2023-07-22T02:04:10;3.25;;;1.70;;
21657;SDS011;10990;48.174;9.782;2023-07-22T02:06:37;3.33;;;1.60;;
21657;SDS011;10990;48.174;9.782;2023-07-22T02:09:04;3.80;;;1.83;;
21657;SDS011;10990;48.174;9.782;2023-07-22T02:11:34;2.80;;;1.70;;
21657;SDS011;10990;48.174;9.782;2023-07-22T02:14:01;2.78;;;1.75;;
21657;SDS011;10990;48.174;9.782;2023-07-22T02:16:33;2.80;;;1.85;;
21657;SDS011;10990;48.174;9.782;2023-07-22T02:19:00;3.53;;;1.52;;
21657;SDS011;10990;48.174;9.782;2023-07-22T02:21:27;2.35;;;1.70;;
21657;SDS011;10990;48.174;9.782;2023-07-22T02:23:54;2.25;;;1.30;;
21657;SDS011;10990;48.174;9.782;2023-07-22T02:26:20;3.97;;;1.80;;
21657;SDS011;10990;48.174;9.782;2023-07-22T02:28:47;2.10;;;1.77;;
21657;SDS011;10990;48.174;9.782;2023-07-22T02:31:14;3.95;;;1.60;;
21657;SDS011;10990;48.174;9.782;2023-07-22T02:33:42;2.95;;;1.80;;
21657;SDS011;10990;48.174;9.782;2023-07-22T02:36:09;3.13;;;1.90;;
21657;SDS011;10990;48.174;9.782;2023-07-22T02:38:35;2.50;;;1.77;;
21657;SDS011;10990;48.174;9.782;2023-07-22T02:41:02;3.75;;;1.90;;
21657;SDS011;10990;48.174;9.782;2023-07-22T02:43:30;3.83;;;1.95;;
21657;SDS011;10990;48.174;9.782;2023-07-22T02:45:59;2.10;;;1.75;;
21657;SDS011;10990;48.174;9.782;2023-07-22T02:48:26;2.47;;;1.70;;
21657;SDS011;10990;48.174;9.782;2023-07-22T02:50:54;1.70;;;1.60;;
21657;SDS011;10990;48.174;9.782;2023-07-22T02:53:21;5.13;;;1.63;;
21657;SDS011;10990;48.174;9.782;2023-07-22T02:55:48;2.60;;;1.83;;
21657;SDS011;10990;48.174;9.782;2023-07-22T02:58:14;3.53;;;1.98;;
21657;SDS011;10990;48.174;9.782;2023-07-22T03:00:41;2.40;;;1.67;;
21657;SDS011;10990;48.174;9.782;2023-07-22T03:03:08;3.13;;;1.70;;
21657;SDS011;10990;48.174;9.782;2023-07-22T03:05:35;2.78;;;1.60;;
21657;SDS011;10990;48.174;9.782;2023-07-22T03:08:03;2.95;;;1.90;;
21657;SDS011;10990;48.174;9.782;2023-07-22T03:10:32;2.13;;;1.70;;
21657;SDS011;10990;48.174;9.782;2023-07-22T03:12:59;4.65;;;1.83;;
21657;SDS011;10990;48.174;9.782;2023-07-22T03:15:27;3.53;;;1.88;;
21657;SDS011;10990;48.174;9.782;2023-07-22T03:17:54;4.15;;;1.63;;
21657;SDS011;10990;48.174;9.782;2023-07-22T03:20:23;3.03;;;1.83;;
21657;SDS011;10990;48.174;9.782;2023-07-22T03:22:50;2.95;;;1.75;;
21657;SDS011;10990;48.174;9.782;2023-07-22T03:25:19;4.95;;;1.77;;
21657;SDS011;10990;48.174;9.782;2023-07-22T03:27:46;3.22;;;1.80;;
21657;SDS011;10990;48.174;9.782;2023-07-22T03:30:13;2.17;;;1.67;;
21657;SDS011;10990;48.174;9.782;2023-07-22T03:32:42;2.38;;;1.63;;
21657;SDS011;10990;48.174;9.782;2023-07-22T03:35:09;2.55;;;1.52;;
21657;SDS011;10990;48.174;9.782;2023-07-22T03:37:36;5.20;;;1.80;;
21657;SDS011;10990;48.174;9.782;2023-07-22T03:40:03;2.58;;;1.70;;
21657;SDS011;10990;48.174;9.782;2023-07-22T03:42:34;2.85;;;1.50;;
21657;SDS011;10990;48.174;9.782;2023-07-22T03:45:01;2.70;;;1.58;;
21657;SDS011;10990;48.174;9.782;2023-07-22T03:47:28;3.15;;;1.77;;
21657;SDS011;10990;48.174;9.782;2023-07-22T03:49:54;2.55;;;1.52;;
21657;SDS011;10990;48.174;9.782;2023-07-22T03:52:21;4.00;;;1.80;;
21657;SDS011;10990;48.174;9.782;2023-07-22T03:54:48;2.38;;;1.60;;
21657;SDS011;10990;48.174;9.782;2023-07-22T03:57:14;2.55;;;1.75;;
21657;SDS011;10990;48.174;9.782;2023-07-22T03:59:42;2.88;;;1.70;;
21657;SDS011;10990;48.174;9.782;2023-07-22T04:02:09;3.53;;;1.70;;
21657;SDS011;10990;48.174;9.782;2023-07-22T04:04:36;4.25;;;1.98;;
21657;SDS011;10990;48.174;9.782;2023-07-22T04:07:03;2.95;;;1.80;;
21657;SDS011;10990;48.174;9.782;2023-07-22T04:09:33;3.70;;;1.55;;
21657;SDS011;10990;48.174;9.782;2023-07-22T04:11:59;4.05;;;1.98;;
21657;SDS011;10990;48.174;9.782;2023-07-22T04:14:26;5.18;;;1.83;;
21657;SDS011;10990;48.174;9.782;2023-07-22T04:16:54;2.30;;;1.80;;
21657;SDS011;10990;48.174;9.782;2023-07-22T04:19:21;3.78;;;1.92;;
21657;SDS011;10990;48.174;9.782;2023-07-22T04:21:47;3.97;;;2.00;;
21657;SDS011;10990;48.174;9.782;2023-07-22T04:24:14;2.95;;;1.60;;
21657;SDS011;10990;48.174;9.782;2023-07-22T04:26:43;3.40;;;1.83;;
21657;SDS011;10990;48.174;9.782;2023-07-22T04:29:10;3.40;;;1.67;;
21657;SDS011;10990;48.174;9.782;2023-07-22T04:31:37;3.92;;;1.60;;
21657;SDS011;10990;48.174;9.782;2023-07-22T04:34:05;2.72;;;1.65;;
21657;SDS011;10990;48.174;9.782;2023-07-22T04:36:33;3.58;;;1.77;;
21657;SDS011;10990;48.174;9.782;2023-07-22T04:39:00;2.05;;;1.60;;
21657;SDS011;10990;48.174;9.782;2023-07-22T04:41:26;5.30;;;2.00;;
21657;SDS011;10990;48.174;9.782;2023-07-22T04:43:53;3.47;;;1.80;;
21657;SDS011;10990;48.174;9.782;2023-07-22T04:46:19;5.68;;;1.60;;
21657;SDS011;10990;48.174;9.782;2023-07-22T04:48:47;2.80;;;1.60;;
21657;SDS011;10990;48.174;9.782;2023-07-22T04:51:15;2.67;;;1.80;;
21657;SDS011;10990;48.174;9.782;2023-07-22T04:53:41;5.35;;;1.80;;
21657;SDS011;10990;48.174;9.782;2023-07-22T04:56:08;3.08;;;1.75;;
21657;SDS011;10990;48.174;9.782;2023-07-22T04:58:34;3.80;;;1.83;;
21657;SDS011;10990;48.174;9.782;2023-07-22T05:01:01;5.72;;;1.80;;
21657;SDS011;10990;48.174;9.782;2023-07-22T05:03:28;3.60;;;1.80;;
21657;SDS011;10990;48.174;9.782;2023-07-22T05:05:54;4.65;;;2.00;;
21657;SDS011;10990;48.174;9.782;2023-07-22T05:08:24;4.00;;;2.05;;
21657;SDS011;10990;48.174;9.782;2023-07-22T05:10:51;5.20;;;2.30;;
21657;SDS011;10990;48.174;9.782;2023-07-22T05:13:17;6.93;;;1.95;;
21657;SDS011;10990;48.174;9.782;2023-07-22T05:15:44;3.20;;;2.03;;
21657;SDS011;10990;48.174;9.782;2023-07-22T05:18:11;4.22;;;1.90;;
21657;SDS011;10990;48.174;9.782;2023-07-22T05:20:37;4.70;;;1.80;;
21657;SDS011;10990;48.174;9.782;2023-07-22T05:23:04;3.55;;;2.00;;
21657;SDS011;10990;48.174;9.782;2023-07-22T05:25:32;3.17;;;1.80;;
21657;SDS011;10990;48.174;9.782;2023-07-22T05:27:59;3.67;;;2.00;;
21657;SDS011;10990;48.174;9.782;2023-07-22T05:30:26;3.67;;;1.90;;
21657;SDS011;10990;48.174;9.782;2023-07-22T05:32:52;4.75;;;2.00;;
21657;SDS011;10990;48.174;9.782;2023-07-22T05:35:19;2.60;;;1.80;;
21657;SDS011;10990;48.174;9.782;2023-07-22T05:37:46;5.03;;;2.03;;
21657;SDS011;10990;48.174;9.782;2023-07-22T05:40:12;4.90;;;2.03;;
21657;SDS011;10990;48.174;9.782;2023-07-22T05:42:40;4.15;;;2.33;;
21657;SDS011;10990;48.174;9.782;2023-07-22T05:45:07;3.08;;;1.90;;
21657;SDS011;10990;48.174;9.782;2023-07-22T05:47:38;2.42;;;1.80;;
21657;SDS011;10990;48.174;9.782;2023-07-22T05:50:05;6.00;;;1.90;;
21657;SDS011;10990;48.174;9.782;2023-07-22T05:52:33;3.90;;;1.92;;
21657;SDS011;10990;48.174;9.782;2023-07-22T05:55:00;3.92;;;2.03;;
21657;SDS011;10990;48.174;9.782;2023-07-22T05:57:26;2.40;;;1.98;;
21657;SDS011;10990;48.174;9.782;2023-07-22T05:59:54;3.45;;;1.90;;
21657;SDS011;10990;48.174;9.782;2023-07-22T06:02:21;3.53;;;2.25;;
21657;SDS011;10990;48.174;9.782;2023-07-22T06:04:48;3.40;;;1.90;;
21657;SDS011;10990;48.174;9.782;2023-07-22T06:07:14;4.88;;;2.25;;
21657;SDS011;10990;48.174;9.782;2023-07-22T06:09:41;3.97;;;2.08;;
21657;SDS011;10990;48.174;9.782;2023-07-22T06:12:08;4.63;;;2.13;;
21657;SDS011;10990;48.174;9.782;2023-07-22T06:14:34;3.45;;;2.15;;
21657;SDS011;10990;48.174;9.782;2023-07-22T06:17:03;2.58;;;2.10;;
21657;SDS011;10990;48.174;9.782;2023-07-22T06:19:30;3.13;;;2.40;;
21657;SDS011;10990;48.174;9.782;2023-07-22T06:21:56;6.35;;;2.25;;
21657;SDS011;10990;48.174;9.782;2023-07-22T06:24:23;2.40;;;2.05;;
21657;SDS011;10990;48.174;9.782;2023-07-22T06:26:50;4.22;;;2.30;;
21657;SDS011;10990;48.174;9.782;2023-07-22T06:29:16;2.97;;;2.30;;
21657;SDS011;10990;48.174;9.782;2023-07-22T06:31:43;4.13;;;2.10;;
21657;SDS011;10990;48.174;9.782;2023-07-22T06:34:11;2.42;;;2.10;;
21657;SDS011;10990;48.174;9.782;2023-07-22T06:36:38;2.65;;;2.08;;
21657;SDS011;10990;48.174;9.782;2023-07-22T06:39:04;3.30;;;1.98;;
21657;SDS011;10990;48.174;9.782;2023-07-22T06:41:31;3.22;;;1.88;;
21657;SDS011;10990;48.174;9.782;2023-07-22T06:43:58;3.20;;;2.13;;
21657;SDS011;10990;48.174;9.782;2023-07-22T06:46:24;2.30;;;2.08;;
21657;SDS011;10990;48.174;9.782;2023-07-22T06:48:51;2.67;;;2.05;;
21657;SDS011;10990;48.174;9.782;2023-07-22T06:51:19;3.63;;;2.33;;
21657;SDS011;10990;48.174;9.782;2023-07-22T06:53:46;3.90;;;2.45;;
21657;SDS011;10990;48.174;9.782;2023-07-22T06:56:13;4.50;;;2.38;;
21657;SDS011;10990;48.174;9.782;2023-07-22T06:58:40;3.35;;;2.25;;
21657;SDS011;10990;48.174;9.782;2023-07-22T07:01:06;5.20;;;2.05;;
21657;SDS011;10990;48.174;9.782;2023-07-22T07:03:33;2.35;;;2.13;;
21657;SDS011;10990;48.174;9.782;2023-07-22T07:06:00;4.57;;;2.58;;
21657;SDS011;10990;48.174;9.782;2023-07-22T07:08:28;4.15;;;2.28;;
21657;SDS011;10990;48.174;9.782;2023-07-22T07:10:55;2.78;;;2.00;;
21657;SDS011;10990;48.174;9.782;2023-07-22T07:13:22;3.55;;;2.35;;
21657;SDS011;10990;48.174;9.782;2023-07-22T07:15:48;3.03;;;2.13;;
21657;SDS011;10990;48.174;9.782;2023-07-22T07:18:15;3.63;;;2.30;;
21657;SDS011;10990;48.174;9.782;2023-07-22T07:20:43;3.08;;;1.90;;
21657;SDS011;10990;48.174;9.782;2023-07-22T07:23:10;2.30;;;2.10;;
21657;SDS011;10990;48.174;9.782;2023-07-22T07:25:38;2.33;;;2.10;;
21657;SDS011;10990;48.174;9.782;2023-07-22T07:28:05;2.53;;;2.10;;
21657;SDS011;10990;48.174;9.782;2023-07-22T07:30:31;2.95;;;2.00;;
21657;SDS011;10990;48.174;9.782;2023-07-22T07:32:58;3.70;;;1.80;;
21657;SDS011;10990;48.174;9.782;2023-07-22T07:35:25;3.35;;;1.95;;
21657;SDS011;10990;48.174;9.782;2023-07-22T07:37:51;3.05;;;1.90;;
21657;SDS011;10990;48.174;9.782;2023-07-22T07:40:18;7.72;;;1.77;;
21657;SDS011;10990;48.174;9.782;2023-07-22T07:42:46;22.85;;;2.13;;
21657;SDS011;10990;48.174;9.782;2023-07-22T07:45:13;3.33;;;1.80;;
21657;SDS011;10990;48.174;9.782;2023-07-22T07:47:40;3.95;;;1.50;;
21657;SDS011;10990;48.174;9.782;2023-07-22T07:50:07;1.90;;;1.70;;
21657;SDS011;10990;48.174;9.782;2023-07-22T07:52:34;2.17;;;1.52;;
21657;SDS011;10990;48.174;9.782;2023-07-22T07:55:00;2.75;;;1.50;;
21657;SDS011;10990;48.174;9.782;2023-07-22T07:57:27;1.48;;;1.38;;
21657;SDS011;10990;48.174;9.782;2023-07-22T07:59:55;1.45;;;1.30;;
21657;SDS011;10990;48.174;9.782;2023-07-22T08:02:22;2.35;;;1.33;;
21657;SDS011;10990;48.174;9.782;2023-07-22T08:04:49;1.50;;;1.38;;
21657;SDS011;10990;48.174;9.782;2023-07-22T08:07:16;2.38;;;1.50;;
21657;SDS011;10990;48.174;9.782;2023-07-22T08:09:43;1.50;;;1.40;;
21657;SDS011;10990;48.174;9.782;2023-07-22T08:12:13;1.60;;;1.50;;
21657;SDS011;10990;48.174;9.782;2023-07-22T08:14:40;1.65;;;1.55;;
21657;SDS011;10990;48.174;9.782;2023-07-22T08:17:08;2.95;;;1.70;;
21657;SDS011;10990;48.174;9.782;2023-07-22T08:19:35;3.35;;;1.50;;
21657;SDS011;10990;48.174;9.782;2023-07-22T08:22:01;1.50;;;1.40;;
21657;SDS011;10990;48.174;9.782;2023-07-22T08:24:28;1.67;;;1.58;;
21657;SDS011;10990;48.174;9.782;2023-07-22T08:26:55;1.83;;;1.73;;
21657;SDS011;10990;48.174;9.782;2023-07-22T08:29:22;1.60;;;1.50;;
21657;SDS011;10990;48.174;9.782;2023-07-22T08:31:48;2.15;;;1.77;;
21657;SDS011;10990;48.174;9.782;2023-07-22T08:34:16;1.48;;;1.38;;
21657;SDS011;10990;48.174;9.782;2023-07-22T08:36:43;1.50;;;1.40;;
21657;SDS011;10990;48.174;9.782;2023-07-22T08:39:10;1.65;;;1.40;;
21657;SDS011;10990;48.174;9.782;2023-07-22T08:41:36;1.67;;;1.58;;
21657;SDS011;10990;48.174;9.782;2023-07-22T08:44:04;1.77;;;1.67;;
21657;SDS011;10990;48.174;9.782;2023-07-22T08:46:33;2.85;;;1.70;;
21657;SDS011;10990;48.174;9.782;2023-07-22T08:49:01;2.47;;;1.55;;
21657;SDS011;10990;48.174;9.782;2023-07-22T08:51:32;2.17;;;1.42;;
21657;SDS011;10990;48.174;9.782;2023-07-22T08:54:00;1.60;;;1.50;;
21657;SDS011;10990;48.174;9.782;2023-07-22T08:56:28;1.50;;;1.40;;
21657;SDS011;10990;48.174;9.782;2023-07-22T08:58:55;1.73;;;1.40;;
21657;SDS011;10990;48.174;9.782;2023-07-22T09:01:23;1.70;;;1.60;;
21657;SDS011;10990;48.174;9.782;2023-07-22T09:03:51;1.70;;;1.60;;
21657;SDS011;10990;48.174;9.782;2023-07-22T09:06:22;19.08;;;1.48;;
21657;SDS011;10990;48.174;9.782;2023-07-22T09:08:50;1.60;;;1.50;;
21657;SDS011;10990;48.174;9.782;2023-07-22T09:11:18;1.65;;;1.42;;
21657;SDS011;10990;48.174;9.782;2023-07-22T09:13:45;1.50;;;1.40;;
21657;SDS011;10990;48.174;9.782;2023-07-22T09:16:13;1.95;;;1.52;;
21657;SDS011;10990;48.174;9.782;2023-07-22T09:18:41;2.40;;;1.60;;
21657;SDS011;10990;48.174;9.782;2023-07-22T09:21:08;1.98;;;1.60;;
21657;SDS011;10990;48.174;9.782;2023-07-22T09:23:36;1.73;;;1.63;;
21657;SDS011;10990;48.174;9.782;2023-07-22T09:26:12;2.47;;;1.67;;
21657;SDS011;10990;48.174;9.782;2023-07-22T09:28:50;2.08;;;1.60;;
21657;SDS011;10990;48.174;9.782;2023-07-22T09:31:18;1.55;;;1.45;;
21657;SDS011;10990;48.174;9.782;2023-07-22T09:33:46;1.83;;;1.67;;
21657;SDS011;10990;48.174;9.782;2023-07-22T09:36:13;3.03;;;1.60;;
21657;SDS011;10990;48.174;9.782;2023-07-22T09:38:39;1.83;;;1.73;;
21657;SDS011;10990;48.174;9.782;2023-07-22T09:41:06;1.80;;;1.70;;
21657;SDS011;10990;48.174;9.782;2023-07-22T09:43:37;1.70;;;1.60;;
21657;SDS011;10990;48.174;9.782;2023-07-22T09:46:08;2.55;;;1.50;;
21657;SDS011;10990;48.174;9.782;2023-07-22T09:48:39;1.73;;;1.58;;
21657;SDS011;10990;48.174;9.782;2023-07-22T09:51:11;1.88;;;1.35;;
21657;SDS011;10990;48.174;9.782;2023-07-22T09:53:43;1.45;;;1.35;;
21657;SDS011;10990;48.174;9.782;2023-07-22T09:56:11;1.58;;;1.48;;
21657;SDS011;10990;48.174;9.782;2023-07-22T09:58:39;1.63;;;1.40;;
21657;SDS011;10990;48.174;9.782;2023-07-22T10:01:06;2.17;;;1.70;;
21657;SDS011;10990;48.174;9.782;2023-07-22T10:03:33;1.60;;;1.50;;
21657;SDS011;10990;48.174;9.782;2023-07-22T10:06:03;2.05;;;1.65;;
21657;SDS011;10990;48.174;9.782;2023-07-22T10:08:32;3.45;;;2.20;;
21657;SDS011;10990;48.174;9.782;2023-07-22T10:11:00;1.52;;;1.42;;
21657;SDS011;10990;48.174;9.782;2023-07-22T10:13:31;2.45;;;1.40;;
21657;SDS011;10990;48.174;9.782;2023-07-22T10:16:00;2.63;;;1.52;;
21657;SDS011;10990;48.174;9.782;2023-07-22T10:18:27;2.03;;;1.40;;
21657;SDS011;10990;48.174;9.782;2023-07-22T10:20:56;2.03;;;1.60;;
21657;SDS011;10990;48.174;9.782;2023-07-22T10:23:24;1.70;;;1.40;;
21657;SDS011;10990;48.174;9.782;2023-07-22T10:25:52;1.58;;;1.48;;
21657;SDS011;10990;48.174;9.782;2023-07-22T10:28:19;1.60;;;1.50;;
21657;SDS011;10990;48.174;9.782;2023-07-22T10:30:46;1.58;;;1.40;;
21657;SDS011;10990;48.174;9.782;2023-07-22T10:33:14;1.45;;;1.35;;
21657;SDS011;10990;48.174;9.782;2023-07-22T10:35:43;1.48;;;1.38;;
21657;SDS011;10990;48.174;9.782;2023-07-22T10:38:27;1.65;;;1.45;;
21657;SDS011;10990;48.174;9.782;2023-07-22T10:40:55;2.50;;;1.83;;
21657;SDS011;10990;48.174;9.782;2023-07-22T10:43:23;1.60;;;1.50;;
21657;SDS011;10990;48.174;9.782;2023-07-22T10:45:52;2.15;;;1.52;;
21657;SDS011;10990;48.174;9.782;2023-07-22T10:48:24;1.83;;;1.63;;
21657;SDS011;10990;48.174;9.782;2023-07-22T10:50:53;1.70;;;1.60;;
21657;SDS011;10990;48.174;9.782;2023-07-22T10:53:22;1.80;;;1.70;;
21657;SDS011;10990;48.174;9.782;2023-07-22T10:56:06;1.58;;;1.48;;
21657;SDS011;10990;48.174;9.782;2023-07-22T10:58:56;2.10;;;1.80;;
21657;SDS011;10990;48.174;9.782;2023-07-22T11:01:31;1.70;;;1.60;;
21657;SDS011;10990;48.174;9.782;2023-07-22T11:04:07;1.70;;;1.60;;
21657;SDS011;10990;48.174;9.782;2023-07-22T11:06:36;2.78;;;1.60;;
21657;SDS011;10990;48.174;9.782;2023-07-22T11:09:04;2.05;;;1.70;;
21657;SDS011;10990;48.174;9.782;2023-07-22T11:11:38;2.45;;;1.77;;
21657;SDS011;10990;48.174;9.782;2023-07-22T11:14:13;3.10;;;1.77;;
21657;SDS011;10990;48.174;9.782;2023-07-22T11:16:41;2.22;;;1.67;;
21657;SDS011;10990;48.174;9.782;2023-07-22T11:19:10;2.08;;;1.88;;
21657;SDS011;10990;48.174;9.782;2023-07-22T11:21:36;2.08;;;1.88;;
21657;SDS011;10990;48.174;9.782;2023-07-22T11:24:03;2.90;;;1.98;;
21657;SDS011;10990;48.174;9.782;2023-07-22T11:26:30;2.17;;;1.98;;
21657;SDS011;10990;48.174;9.782;2023-07-22T11:28:57;2.20;;;1.80;;
21657;SDS011;10990;48.174;9.782;2023-07-22T11:31:30;2.28;;;1.95;;
21657;SDS011;10990;48.174;9.782;2023-07-22T11:33:57;2.65;;;2.10;;
21657;SDS011;10990;48.174;9.782;2023-07-22T11:36:25;2.35;;;2.00;;
21657;SDS011;10990;48.174;9.782;2023-07-22T11:38:52;3.28;;;1.85;;
21657;SDS011;10990;48.174;9.782;2023-07-22T11:41:19;2.03;;;1.90;;
21657;SDS011;10990;48.174;9.782;2023-07-22T11:43:46;2.83;;;2.20;;
21657;SDS011;10990;48.174;9.782;2023-07-22T11:46:13;2.40;;;1.90;;
21657;SDS011;10990;48.174;9.782;2023-07-22T11:48:48;2.78;;;2.22;;
21657;SDS011;10990;48.174;9.782;2023-07-22T11:51:16;2.10;;;1.88;;
21657;SDS011;10990;48.174;9.782;2023-07-22T11:53:47;1.98;;;1.77;;
21657;SDS011;10990;48.174;9.782;2023-07-22T11:56:17;2.10;;;1.90;;
21657;SDS011;10990;48.174;9.782;2023-07-22T11:58:48;5.40;;;2.20;;
21657;SDS011;10990;48.174;9.782;2023-07-22T12:01:15;3.72;;;2.15;;
21657;SDS011;10990;48.174;9.782;2023-07-22T12:03:42;2.15;;;1.95;;
21657;SDS011;10990;48.174;9.782;2023-07-22T12:06:09;2.67;;;2.08;;
21657;SDS011;10990;48.174;9.782;2023-07-22T12:08:37;2.80;;;1.90;;
21657;SDS011;10990;48.174;9.782;2023-07-22T12:11:10;4.55;;;1.98;;
21657;SDS011;10990;48.174;9.782;2023-07-22T12:13:42;2.15;;;1.95;;
21657;SDS011;10990;48.174;9.782;2023-07-22T12:16:11;2.53;;;1.98;;
21657;SDS011;10990;48.174;9.782;2023-07-22T12:18:42;2.97;;;1.90;;
21657;SDS011;10990;48.174;9.782;2023-07-22T12:21:09;2.97;;;1.90;;
21657;SDS011;10990;48.174;9.782;2023-07-22T12:23:36;2.13;;;1.90;;
21657;SDS011;10990;48.174;9.782;2023-07-22T12:26:03;3.78;;;2.30;;
21657;SDS011;10990;48.174;9.782;2023-07-22T12:28:31;2.45;;;2.25;;
21657;SDS011;10990;48.174;9.782;2023-07-22T12:30:58;2.00;;;1.80;;
21657;SDS011;10990;48.174;9.782;2023-07-22T12:33:25;2.35;;;2.13;;
21657;SDS011;10990;48.174;9.782;2023-07-22T12:35:52;2.30;;;2.10;;
21657;SDS011;10990;48.174;9.782;2023-07-22T12:38:19;2.30;;;2.10;;
21657;SDS011;10990;48.174;9.782;2023-07-22T12:40:46;3.50;;;2.17;;
21657;SDS011;10990;48.174;9.782;2023-07-22T12:43:13;3.22;;;2.20;;
21657;SDS011;10990;48.174;9.782;2023-07-22T12:45:41;2.95;;;2.28;;
21657;SDS011;10990;48.174;9.782;2023-07-22T12:48:08;3.33;;;2.38;;
21657;SDS011;10990;48.174;9.782;2023-07-22T12:50:35;2.65;;;2.45;;
21657;SDS011;10990;48.174;9.782;2023-07-22T12:53:02;2.92;;;2.45;;
21657;SDS011;10990;48.174;9.782;2023-07-22T12:55:29;2.72;;;2.20;;
21657;SDS011;10990;48.174;9.782;2023-07-22T12:57:56;2.13;;;1.92;;
21657;SDS011;10990;48.174;9.782;2023-07-22T13:00:23;3.13;;;2.22;;
21657;SDS011;10990;48.174;9.782;2023-07-22T13:02:51;2.50;;;2.30;;
21657;SDS011;10990;48.174;9.782;2023-07-22T13:05:18;2.70;;;2.28;;
21657;SDS011;10990;48.174;9.782;2023-07-22T13:07:45;2.38;;;2.10;;
21657;SDS011;10990;48.174;9.782;2023-07-22T13:10:14;2.20;;;2.00;;
21657;SDS011;10990;48.174;9.782;2023-07-22T13:12:57;2.50;;;2.20;;
21657;SDS011;10990;48.174;9.782;2023-07-22T13:15:23;3.05;;;2.40;;
21657;SDS011;10990;48.174;9.782;2023-07-22T13:17:51;3.03;;;2.40;;
21657;SDS011;10990;48.174;9.782;2023-07-22T13:20:18;2.13;;;1.92;;
21657;SDS011;10990;48.174;9.782;2023-07-22T13:22:45;2.53;;;2.33;;
21657;SDS011;10990;48.174;9.782;2023-07-22T13:25:11;2.40;;;2.20;;
21657;SDS011;10990;48.174;9.782;2023-07-22T13:27:38;2.20;;;2.00;;
21657;SDS011;10990;48.174;9.782;2023-07-22T13:30:06;3.03;;;2.05;;
21657;SDS011;10990;48.174;9.782;2023-07-22T13:32:33;2.30;;;2.10;;
21657;SDS011;10990;48.174;9.782;2023-07-22T13:35:02;3.55;;;2.30;;
21657;SDS011;10990;48.174;9.782;2023-07-22T13:37:29;3.47;;;2.42;;
21657;SDS011;10990;48.174;9.782;2023-07-22T13:39:56;3.00;;;2.30;;
21657;SDS011;10990;48.174;9.782;2023-07-22T13:42:23;3.22;;;2.70;;
21657;SDS011;10990;48.174;9.782;2023-07-22T13:44:50;2.42;;;2.22;;
21657;SDS011;10990;48.174;9.782;2023-07-22T13:47:16;2.40;;;2.10;;
21657;SDS011;10990;48.174;9.782;2023-07-22T13:49:43;3.45;;;2.00;;
21657;SDS011;10990;48.174;9.782;2023-07-22T13:52:11;2.78;;;2.10;;
21657;SDS011;10990;48.174;9.782;2023-07-22T13:54:38;4.20;;;2.50;;
21657;SDS011;10990;48.174;9.782;2023-07-22T13:57:05;4.55;;;2.50;;
21657;SDS011;10990;48.174;9.782;2023-07-22T13:59:33;3.28;;;2.53;;
21657;SDS011;10990;48.174;9.782;2023-07-22T14:01:59;4.35;;;2.50;;
21657;SDS011;10990;48.174;9.782;2023-07-22T14:04:26;3.10;;;2.60;;
21657;SDS011;10990;48.174;9.782;2023-07-22T14:06:52;2.83;;;2.25;;
21657;SDS011;10990;48.174;9.782;2023-07-22T14:09:20;2.92;;;2.20;;
21657;SDS011;10990;48.174;9.782;2023-07-22T14:11:47;2.70;;;2.17;;
21657;SDS011;10990;48.174;9.782;2023-07-22T14:14:14;3.33;;;2.38;;
21657;SDS011;10990;48.174;9.782;2023-07-22T14:16:41;3.97;;;2.28;;
21657;SDS011;10990;48.174;9.782;2023-07-22T14:19:08;4.03;;;2.40;;
21657;SDS011;10990;48.174;9.782;2023-07-22T14:21:34;3.58;;;2.42;;
21657;SDS011;10990;48.174;9.782;2023-07-22T14:24:01;2.70;;;2.25;;
21657;SDS011;10990;48.174;9.782;2023-07-22T14:26:30;3.38;;;2.33;;
21657;SDS011;10990;48.174;9.782;2023-07-22T14:28:56;4.30;;;2.45;;
21657;SDS011;10990;48.174;9.782;2023-07-22T14:31:23;2.70;;;2.10;;
21657;SDS011;10990;48.174;9.782;2023-07-22T14:33:50;2.35;;;2.10;;
21657;SDS011;10990;48.174;9.782;2023-07-22T14:36:16;2.83;;;2.20;;
21657;SDS011;10990;48.174;9.782;2023-07-22T14:38:43;3.10;;;2.40;;
21657;SDS011;10990;48.174;9.782;2023-07-22T14:41:11;3.05;;;2.10;;
21657;SDS011;10990;48.174;9.782;2023-07-22T14:43:39;3.65;;;2.42;;
21657;SDS011;10990;48.174;9.782;2023-07-22T14:46:05;3.00;;;2.47;;
21657;SDS011;10990;48.174;9.782;2023-07-22T14:48:32;3.25;;;2.70;;
21657;SDS011;10990;48.174;9.782;2023-07-22T14:50:59;3.38;;;2.75;;